createdAt,value
2023-01-29T00:02:09.892Z,101681.25
2023-01-29T00:04:36.837Z,101688.22
2023-01-29T00:07:03.986Z,101679.72
2023-01-29T00:09:31.856Z,101685.75
2023-01-29T00:11:58.532Z,101680.47
2023-01-29T00:14:27.555Z,101676.88
2023-01-29T00:16:54.634Z,101677.66
2023-01-29T00:19:21.407Z,101674.28
2023-01-29T00:21:47.939Z,101676.69
2023-01-29T00:24:15.062Z,101672.53
2023-01-29T00:26:43.461Z,101686.56
2023-01-29T00:29:11.046Z,101681.63
2023-01-29T00:31:38.822Z,101678.41
2023-01-29T00:34:07.030Z,101686.38
2023-01-29T00:36:34.271Z,101684.09
2023-01-29T00:39:02.738Z,101691.78
2023-01-29T00:41:51.167Z,101675.72
2023-01-29T00:44:37.351Z,101678.28
2023-01-29T00:47:05.378Z,101678.22
2023-01-29T00:49:32.165Z,101682.28
2023-01-29T00:52:17.979Z,101690.94
2023-01-29T00:54:44.855Z,101690.94
2023-01-29T00:57:11.497Z,101697.75
2023-01-29T00:59:38.467Z,101689.69
2023-01-29T01:02:23.966Z,101700.06
2023-01-29T01:04:51.135Z,101707.72
2023-01-29T01:07:17.595Z,101703.72
2023-01-29T01:10:03.000Z,101700.69
2023-01-29T01:12:30.669Z,101700.97
2023-01-29T01:14:57.641Z,101703.53
2023-01-29T01:17:24.574Z,101698.16
2023-01-29T01:19:51.592Z,101695.75
2023-01-29T01:22:18.737Z,101696.88
2023-01-29T01:24:45.421Z,101697.19
2023-01-29T01:27:12.784Z,101694.97
2023-01-29T01:29:39.401Z,101693.53
2023-01-29T01:32:06.586Z,101692.38
2023-01-29T01:34:33.389Z,101686.50
2023-01-29T01:37:01.286Z,101680.16
2023-01-29T01:39:27.832Z,101682.81
2023-01-29T01:41:54.953Z,101695.47
2023-01-29T01:44:54.219Z,101686.94
2023-01-29T01:47:26.458Z,101683.06
2023-01-29T01:49:55.241Z,101686.53
2023-01-29T01:52:21.904Z,101688.22
2023-01-29T01:55:12.190Z,101686.25
2023-01-29T01:58:06.488Z,101676.81
2023-01-29T02:00:53.994Z,101683.88
2023-01-29T02:04:09.254Z,101684.84
2023-01-29T02:07:16.542Z,101679.50
2023-01-29T02:10:12.855Z,101664.19
2023-01-29T02:12:40.375Z,101673.47
2023-01-29T02:15:07.793Z,101672.50
2023-01-29T02:17:34.662Z,101669.06
2023-01-29T02:20:10.563Z,101664.06
2023-01-29T02:22:47.109Z,101670.44
2023-01-29T02:25:41.183Z,101660.22
2023-01-29T02:28:55.240Z,101648.47
2023-01-29T02:31:28.265Z,101652.84
2023-01-29T02:34:01.262Z,101649.50
2023-01-29T02:36:41.489Z,101639.66
2023-01-29T02:39:34.095Z,101647.38
2023-01-29T02:42:41.218Z,101648.16
2023-01-29T02:45:18.797Z,101637.88
2023-01-29T02:48:01.073Z,101637.97
2023-01-29T02:50:51.272Z,101634.34
2023-01-29T02:53:42.731Z,101633.41
2023-01-29T02:56:21.612Z,101641.25
2023-01-29T02:58:54.671Z,101642.00
2023-01-29T03:01:31.607Z,101652.03
2023-01-29T03:04:06.829Z,101641.91
2023-01-29T03:06:38.802Z,101646.16
2023-01-29T03:09:13.292Z,101656.34
2023-01-29T03:11:47.021Z,101648.75
2023-01-29T03:14:19.249Z,101658.03
2023-01-29T03:16:50.782Z,101654.31
2023-01-29T03:19:38.760Z,101660.25
2023-01-29T03:22:16.505Z,101660.13
2023-01-29T03:25:15.877Z,101658.56
2023-01-29T03:28:21.111Z,101667.88
2023-01-29T03:31:13.671Z,101672.66
2023-01-29T03:33:50.951Z,101674.50
2023-01-29T03:36:23.163Z,101676.28
2023-01-29T03:38:49.824Z,101682.13
2023-01-29T03:41:31.704Z,101680.53
2023-01-29T03:44:30.406Z,101679.63
2023-01-29T03:47:13.822Z,101679.47
2023-01-29T03:49:43.710Z,101676.06
2023-01-29T03:52:24.731Z,101672.72
2023-01-29T03:55:16.646Z,101676.06
2023-01-29T03:58:03.553Z,101675.31
2023-01-29T04:00:40.957Z,101678.56
2023-01-29T04:03:23.052Z,101683.75
2023-01-29T04:06:10.205Z,101686.25
2023-01-29T04:09:00.093Z,101692.25
2023-01-29T04:11:29.715Z,101691.53
2023-01-29T04:13:57.829Z,101688.13
2023-01-29T04:16:32.215Z,101689.56
2023-01-29T04:19:12.561Z,101685.34
2023-01-29T04:21:42.174Z,101684.28
2023-01-29T04:24:11.776Z,101678.97
2023-01-29T04:27:16.127Z,101665.19
2023-01-29T04:30:02.372Z,101665.63
2023-01-29T04:33:05.430Z,101667.22
2023-01-29T04:35:36.681Z,101676.09
2023-01-29T04:38:16.723Z,101679.53
2023-01-29T04:41:06.546Z,101684.66
2023-01-29T04:43:53.193Z,101682.22
2023-01-29T04:46:51.080Z,101669.97
2023-01-29T04:49:46.194Z,101662.09
2023-01-29T04:52:20.152Z,101658.75
2023-01-29T04:54:53.449Z,101645.56
2023-01-29T04:57:31.471Z,101635.56
2023-01-29T05:00:10.368Z,101627.09
2023-01-29T05:02:41.583Z,101633.84
2023-01-29T05:05:10.869Z,101641.50
2023-01-29T05:07:39.060Z,101644.00
2023-01-29T05:10:08.325Z,101627.09
2023-01-29T05:12:36.943Z,101625.03
2023-01-29T05:15:08.207Z,101641.13
2023-01-29T05:17:35.066Z,101640.25
2023-01-29T05:20:01.560Z,101639.50
2023-01-29T05:22:29.459Z,101650.66
2023-01-29T05:24:56.135Z,101657.47
2023-01-29T05:27:51.265Z,101659.03
2023-01-29T05:30:18.180Z,101664.91
2023-01-29T05:32:45.054Z,101672.00
2023-01-29T05:35:12.048Z,101670.97
2023-01-29T05:37:38.890Z,101667.63
2023-01-29T05:40:09.120Z,101673.72
2023-01-29T05:42:35.665Z,101678.06
2023-01-29T05:45:02.902Z,101665.97
2023-01-29T05:47:29.668Z,101663.94
2023-01-29T05:49:56.263Z,101659.94
2023-01-29T05:52:22.958Z,101658.16
2023-01-29T05:54:49.933Z,101657.13
2023-01-29T05:57:16.368Z,101658.81
2023-01-29T05:59:43.061Z,101654.47
2023-01-29T06:02:09.864Z,101652.94
2023-01-29T06:04:36.699Z,101653.91
2023-01-29T06:07:04.833Z,101648.66
2023-01-29T06:09:31.505Z,101648.28
2023-01-29T06:11:58.052Z,101651.78
2023-01-29T06:14:25.038Z,101662.94
2023-01-29T06:16:51.501Z,101668.84
2023-01-29T06:19:18.222Z,101673.00
2023-01-29T06:21:45.171Z,101677.38
2023-01-29T06:24:11.741Z,101676.38
2023-01-29T06:26:38.716Z,101673.28
2023-01-29T06:29:05.189Z,101670.47
2023-01-29T06:31:38.866Z,101669.56
2023-01-29T06:34:08.407Z,101662.06
2023-01-29T06:36:35.231Z,101664.59
2023-01-29T06:39:01.895Z,101653.31
2023-01-29T06:41:29.032Z,101653.31
2023-01-29T06:43:55.620Z,101645.34
2023-01-29T06:46:22.522Z,101643.81
2023-01-29T06:48:49.245Z,101644.63
2023-01-29T06:51:15.955Z,101641.13
2023-01-29T06:53:45.426Z,101646.16
2023-01-29T06:56:13.017Z,101647.53
2023-01-29T06:58:39.570Z,101650.13
2023-01-29T07:01:15.521Z,101662.06
2023-01-29T07:03:52.399Z,101659.50
2023-01-29T07:06:19.529Z,101666.13
2023-01-29T07:08:46.516Z,101670.28
2023-01-29T07:11:13.155Z,101665.78
2023-01-29T07:13:40.200Z,101666.94
2023-01-29T07:16:07.847Z,101661.72
2023-01-29T07:18:34.517Z,101664.34
2023-01-29T07:21:05.713Z,101660.13
2023-01-29T07:23:32.682Z,101658.31
2023-01-29T07:26:03.716Z,101662.06
2023-01-29T07:28:30.431Z,101657.19
2023-01-29T07:31:00.741Z,101652.06
2023-01-29T07:33:27.335Z,101660.56
2023-01-29T07:35:54.633Z,101667.41
2023-01-29T07:38:24.696Z,101667.97
2023-01-29T07:40:55.026Z,101670.75
2023-01-29T07:43:21.503Z,101673.31
2023-01-29T07:45:48.247Z,101672.91
2023-01-29T07:48:14.704Z,101675.78
2023-01-29T07:50:41.649Z,101675.50
2023-01-29T07:53:15.327Z,101681.34
2023-01-29T07:55:45.563Z,101690.97
2023-01-29T07:58:12.662Z,101692.66
2023-01-29T08:00:39.588Z,101688.31
2023-01-29T08:03:13.317Z,101688.66
2023-01-29T08:05:40.113Z,101693.06
2023-01-29T08:08:07.899Z,101697.28
2023-01-29T08:10:36.573Z,101703.09
2023-01-29T08:13:04.847Z,101693.97
2023-01-29T08:15:32.378Z,101698.56
2023-01-29T08:17:59.265Z,101687.47
2023-01-29T08:20:26.144Z,101696.94
2023-01-29T08:23:08.339Z,101687.72
2023-01-29T08:25:36.001Z,101695.03
2023-01-29T08:28:04.132Z,101687.72
2023-01-29T08:30:33.409Z,101696.03
2023-01-29T08:33:00.627Z,101701.84
2023-01-29T08:35:27.773Z,101700.06
2023-01-29T08:37:56.437Z,101706.84
2023-01-29T08:40:23.963Z,101712.41
2023-01-29T08:42:50.512Z,101716.13
2023-01-29T08:45:17.254Z,101721.28
2023-01-29T08:47:49.988Z,101727.41
2023-01-29T08:50:17.821Z,101731.03
2023-01-29T08:52:45.746Z,101731.56
2023-01-29T08:55:15.387Z,101719.22
2023-01-29T08:57:42.374Z,101693.44
2023-01-29T09:00:10.834Z,101685.09
2023-01-29T09:02:37.802Z,101665.91
2023-01-29T09:05:05.499Z,101653.94
2023-01-29T09:07:32.509Z,101654.31
2023-01-29T09:09:58.967Z,101634.19
2023-01-29T09:12:25.795Z,101643.31
2023-01-29T09:14:52.494Z,101634.31
2023-01-29T09:17:19.377Z,101639.84
2023-01-29T09:19:46.093Z,101645.03
2023-01-29T09:22:14.146Z,101650.13
2023-01-29T09:24:41.169Z,101655.19
2023-01-29T09:27:07.775Z,101668.91
2023-01-29T09:29:35.944Z,101659.38
2023-01-29T09:32:04.277Z,101663.22
2023-01-29T09:34:30.885Z,101680.44
2023-01-29T09:36:57.622Z,101676.22
2023-01-29T09:39:24.087Z,101684.06
2023-01-29T09:42:05.962Z,101681.50
2023-01-29T09:44:51.731Z,101693.16
2023-01-29T09:47:19.882Z,101685.25
2023-01-29T09:49:55.664Z,101678.16
2023-01-29T09:52:31.092Z,101688.56
2023-01-29T09:55:09.930Z,101696.31
2023-01-29T09:57:53.471Z,101698.34
2023-01-29T10:00:38.530Z,101709.94
2023-01-29T10:03:21.083Z,101717.25
2023-01-29T10:05:55.464Z,101710.31
2023-01-29T10:08:49.199Z,101723.75
2023-01-29T10:11:46.307Z,101720.03
2023-01-29T10:14:53.850Z,101723.75
2023-01-29T10:17:39.550Z,101720.44
2023-01-29T10:20:33.334Z,101713.56
2023-01-29T10:23:31.918Z,101699.03
2023-01-29T10:26:00.185Z,101703.75
2023-01-29T10:28:33.974Z,101698.78
2023-01-29T10:31:15.246Z,101702.09
2023-01-29T10:34:01.550Z,101689.72
2023-01-29T10:36:36.091Z,101686.53
2023-01-29T10:39:03.346Z,101670.00
2023-01-29T10:41:56.865Z,101674.44
2023-01-29T10:44:53.559Z,101667.84
2023-01-29T10:47:42.194Z,101671.25
2023-01-29T10:50:33.663Z,101663.53
2023-01-29T10:53:08.447Z,101657.44
2023-01-29T10:55:52.853Z,101652.16
2023-01-29T10:58:36.504Z,101649.78
2023-01-29T11:01:03.499Z,101644.69
2023-01-29T11:03:32.524Z,101641.13
2023-01-29T11:06:20.683Z,101632.66
2023-01-29T11:08:59.234Z,101632.13
2023-01-29T11:11:33.776Z,101625.75
2023-01-29T11:14:07.019Z,101625.16
2023-01-29T11:16:42.974Z,101626.22
2023-01-29T11:19:10.606Z,101623.00
2023-01-29T11:21:59.903Z,101616.56
2023-01-29T11:24:27.337Z,101620.09
2023-01-29T11:26:57.705Z,101615.28
2023-01-29T11:29:29.911Z,101614.50
2023-01-29T11:32:04.110Z,101601.44
2023-01-29T11:34:33.556Z,101593.41
2023-01-29T11:37:05.779Z,101580.00
2023-01-29T11:39:32.882Z,101582.94
2023-01-29T11:42:04.581Z,101574.81
2023-01-29T11:44:33.955Z,101561.53
2023-01-29T11:47:12.865Z,101560.38
2023-01-29T11:49:45.009Z,101553.50
2023-01-29T11:52:13.868Z,101546.06
2023-01-29T11:55:03.778Z,101538.38
2023-01-29T11:57:35.583Z,101537.63
2023-01-29T12:00:07.138Z,101540.72
2023-01-29T12:02:41.854Z,101542.34
2023-01-29T12:05:18.589Z,101539.63
2023-01-29T12:07:48.932Z,101539.44
2023-01-29T12:10:48.434Z,101527.06
2023-01-29T12:13:21.254Z,101518.78
2023-01-29T12:15:49.272Z,101515.22
2023-01-29T12:18:38.091Z,101510.91
2023-01-29T12:21:11.032Z,101510.19
2023-01-29T12:24:15.704Z,101518.53
2023-01-29T12:26:58.253Z,101499.28
2023-01-29T12:29:43.008Z,101497.66
2023-01-29T12:32:38.217Z,101504.81
2023-01-29T12:35:23.019Z,101497.69
2023-01-29T12:38:08.535Z,101508.28
2023-01-29T12:40:43.115Z,101503.81
2023-01-29T12:43:17.176Z,101504.72
2023-01-29T12:45:48.052Z,101496.66
2023-01-29T12:48:20.739Z,101504.41
2023-01-29T12:50:50.137Z,101490.53
2023-01-29T12:53:35.111Z,101494.22
2023-01-29T12:56:11.113Z,101488.53
2023-01-29T12:58:50.538Z,101473.34
2023-01-29T13:01:27.243Z,101471.50
2023-01-29T13:03:57.611Z,101463.47
2023-01-29T13:06:31.748Z,101466.22
2023-01-29T13:09:02.971Z,101468.09
2023-01-29T13:11:37.493Z,101460.09
2023-01-29T13:14:18.942Z,101454.66
2023-01-29T13:16:49.702Z,101450.25
2023-01-29T13:19:23.948Z,101450.38
2023-01-29T13:21:52.459Z,101444.22
2023-01-29T13:24:23.527Z,101444.25
2023-01-29T13:26:50.865Z,101433.31
2023-01-29T13:29:27.543Z,101439.34
2023-01-29T13:32:00.632Z,101428.41
2023-01-29T13:34:31.443Z,101434.97
2023-01-29T13:37:01.919Z,101434.69
2023-01-29T13:39:37.565Z,101435.69
2023-01-29T13:42:18.995Z,101433.22
2023-01-29T13:44:51.387Z,101428.38
2023-01-29T13:47:27.155Z,101428.19
2023-01-29T13:49:59.731Z,101417.06
2023-01-29T13:52:36.292Z,101409.69
2023-01-29T13:55:31.226Z,101413.16
2023-01-29T13:58:02.835Z,101410.53
2023-01-29T14:00:35.405Z,101413.09
2023-01-29T14:03:05.157Z,101403.81
2023-01-29T14:05:31.841Z,101402.75
2023-01-29T14:08:28.089Z,101399.88
2023-01-29T14:11:21.666Z,101406.88
2023-01-29T14:13:49.989Z,101405.13
2023-01-29T14:16:16.483Z,101403.25
2023-01-29T14:18:58.093Z,101399.19
2023-01-29T14:21:36.994Z,101402.25
2023-01-29T14:24:17.032Z,101397.03
2023-01-29T14:26:45.956Z,101401.69
2023-01-29T14:29:14.524Z,101397.66
2023-01-29T14:32:00.545Z,101393.00
2023-01-29T14:34:33.025Z,101389.34
2023-01-29T14:37:19.524Z,101385.25
2023-01-29T14:39:52.432Z,101377.69
2023-01-29T14:42:25.989Z,101388.84
2023-01-29T14:44:55.519Z,101385.25
2023-01-29T14:47:43.480Z,101377.69
2023-01-29T14:50:33.256Z,101373.41
2023-01-29T14:53:19.565Z,101377.75
2023-01-29T14:56:01.177Z,101375.16
2023-01-29T14:58:56.268Z,101379.28
2023-01-29T15:01:34.456Z,101378.59
2023-01-29T15:04:12.192Z,101382.03
2023-01-29T15:06:46.541Z,101377.75
2023-01-29T15:09:40.922Z,101383.75
2023-01-29T15:12:33.302Z,101387.22
2023-01-29T15:15:15.667Z,101376.88
2023-01-29T15:18:03.483Z,101380.34
2023-01-29T15:20:44.493Z,101376.88
2023-01-29T15:23:34.071Z,101369.13
2023-01-29T15:26:03.226Z,101368.25
2023-01-29T15:28:34.531Z,101377.72
2023-01-29T15:31:07.843Z,101371.63
2023-01-29T15:33:38.741Z,101389.78
2023-01-29T15:36:08.185Z,101388.06
2023-01-29T15:38:35.798Z,101391.50
2023-01-29T15:41:16.293Z,101392.31
2023-01-29T15:43:56.657Z,101388.84
2023-01-29T15:46:49.901Z,101391.25
2023-01-29T15:49:31.964Z,101385.88
2023-01-29T15:52:02.013Z,101373.75
2023-01-29T15:54:31.989Z,101367.66
2023-01-29T15:56:59.302Z,101364.09
2023-01-29T15:59:30.656Z,101359.59
2023-01-29T16:01:58.161Z,101359.53
2023-01-29T16:04:28.944Z,101351.69
2023-01-29T16:06:57.993Z,101353.31
2023-01-29T16:09:27.411Z,101351.56
2023-01-29T16:11:58.492Z,101342.81
2023-01-29T16:14:26.679Z,101342.59
2023-01-29T16:16:53.767Z,101341.72
2023-01-29T16:19:20.233Z,101343.34
2023-01-29T16:21:54.672Z,101336.22
2023-01-29T16:24:23.310Z,101342.31
2023-01-29T16:26:52.245Z,101333.72
2023-01-29T16:29:22.455Z,101331.94
2023-01-29T16:31:51.831Z,101329.28
2023-01-29T16:34:29.007Z,101324.91
2023-01-29T16:36:56.372Z,101323.97
2023-01-29T16:39:25.499Z,101317.84
2023-01-29T16:42:17.052Z,101317.75
2023-01-29T16:45:06.503Z,101310.97
2023-01-29T16:47:38.292Z,101303.09
2023-01-29T16:50:36.050Z,101309.88
2023-01-29T16:53:13.412Z,101315.84
2023-01-29T16:55:45.464Z,101303.78
2023-01-29T16:58:18.172Z,101309.72
2023-01-29T17:01:07.951Z,101313.91
2023-01-29T17:03:36.461Z,101314.81
2023-01-29T17:06:19.131Z,101315.59
2023-01-29T17:08:46.143Z,101322.41
2023-01-29T17:11:22.766Z,101319.81
2023-01-29T17:13:49.352Z,101320.53
2023-01-29T17:16:25.954Z,101325.66
2023-01-29T17:18:52.690Z,101326.53
2023-01-29T17:21:19.132Z,101336.66
2023-01-29T17:23:45.759Z,101328.03
2023-01-29T17:26:14.544Z,101325.44
2023-01-29T17:28:42.427Z,101327.00
2023-01-29T17:31:09.206Z,101334.56
2023-01-29T17:33:40.381Z,101332.72
2023-01-29T17:36:12.180Z,101332.69
2023-01-29T17:38:39.756Z,101341.13
2023-01-29T17:41:09.145Z,101347.78
2023-01-29T17:43:35.683Z,101347.78
2023-01-29T17:46:02.322Z,101349.44
2023-01-29T17:48:30.208Z,101354.41
2023-01-29T17:51:00.834Z,101354.44
2023-01-29T17:53:43.291Z,101356.88
2023-01-29T17:56:16.944Z,101361.16
2023-01-29T17:58:43.926Z,101355.84
2023-01-29T18:01:10.738Z,101359.19
2023-01-29T18:03:37.629Z,101365.22
2023-01-29T18:06:08.208Z,101369.31
2023-01-29T18:08:35.743Z,101371.69
2023-01-29T18:11:02.736Z,101371.72
2023-01-29T18:13:29.721Z,101363.13
2023-01-29T18:15:56.270Z,101365.56
2023-01-29T18:18:24.253Z,101357.84
2023-01-29T18:20:51.144Z,101352.53
2023-01-29T18:23:17.795Z,101355.84
2023-01-29T18:25:44.779Z,101355.84
2023-01-29T18:28:17.796Z,101350.63
2023-01-29T18:30:47.244Z,101356.50
2023-01-29T18:33:14.648Z,101360.03
2023-01-29T18:35:41.476Z,101355.00
2023-01-29T18:38:08.000Z,101348.13
2023-01-29T18:40:34.599Z,101350.53
2023-01-29T18:43:01.164Z,101350.59
2023-01-29T18:45:28.778Z,101348.06
2023-01-29T18:47:56.176Z,101354.91
2023-01-29T18:50:24.838Z,101346.28
2023-01-29T18:52:51.471Z,101355.69
2023-01-29T18:55:18.205Z,101354.94
2023-01-29T18:58:29.054Z,101349.00
2023-01-29T19:00:31.477Z,101350.59
2023-01-29T19:02:57.972Z,101353.13
2023-01-29T19:05:25.571Z,101353.06
2023-01-29T19:07:52.361Z,101350.56
2023-01-29T19:10:19.070Z,101350.47
2023-01-29T19:12:45.671Z,101348.72
2023-01-29T19:15:12.338Z,101353.00
2023-01-29T19:17:39.249Z,101351.13
2023-01-29T19:20:06.361Z,101343.50
2023-01-29T19:22:32.971Z,101345.28
2023-01-29T19:24:59.470Z,101349.44
2023-01-29T19:27:30.229Z,101355.47
2023-01-29T19:29:57.784Z,101348.34
2023-01-29T19:32:24.408Z,101351.94
2023-01-29T19:34:51.628Z,101352.78
2023-01-29T19:37:18.065Z,101343.38
2023-01-29T19:39:44.683Z,101338.16
2023-01-29T19:42:11.371Z,101336.38
2023-01-29T19:44:39.737Z,101334.41
2023-01-29T19:47:07.419Z,101336.97
2023-01-29T19:49:34.193Z,101328.44
2023-01-29T19:52:02.230Z,101323.38
2023-01-29T19:54:29.537Z,101325.16
2023-01-29T19:56:56.490Z,101335.41
2023-01-29T19:59:22.944Z,101330.03
2023-01-29T20:01:50.173Z,101331.97
2023-01-29T20:04:16.756Z,101331.91
2023-01-29T20:06:43.266Z,101325.78
2023-01-29T20:09:09.986Z,101330.97
2023-01-29T20:11:36.785Z,101330.06
2023-01-29T20:14:03.476Z,101331.84
2023-01-29T20:16:30.203Z,101331.69
2023-01-29T20:19:13.189Z,101330.75
2023-01-29T20:21:45.367Z,101320.38
2023-01-29T20:24:13.484Z,101319.56
2023-01-29T20:26:40.299Z,101319.63
2023-01-29T20:29:07.454Z,101316.16
2023-01-29T20:31:34.148Z,101318.84
2023-01-29T20:34:00.608Z,101318.81
2023-01-29T20:36:27.214Z,101325.66
2023-01-29T20:38:53.732Z,101322.13
2023-01-29T20:41:22.310Z,101319.66
2023-01-29T20:43:50.741Z,101323.84
2023-01-29T20:46:18.532Z,101328.94
2023-01-29T20:48:45.200Z,101329.53
2023-01-29T20:51:15.398Z,101333.13
2023-01-29T20:53:46.171Z,101328.88
2023-01-29T20:56:14.600Z,101334.09
2023-01-29T20:58:41.883Z,101338.38
2023-01-29T21:01:10.635Z,101324.66
2023-01-29T21:03:39.093Z,101326.34
2023-01-29T21:06:06.534Z,101324.66
2023-01-29T21:08:33.457Z,101319.72
2023-01-29T21:11:00.381Z,101313.53
2023-01-29T21:13:27.532Z,101312.78
2023-01-29T21:15:54.332Z,101310.22
2023-01-29T21:18:21.203Z,101310.28
2023-01-29T21:20:50.724Z,101312.97
2023-01-29T21:23:17.478Z,101302.78
2023-01-29T21:25:45.726Z,101294.97
2023-01-29T21:28:16.019Z,101300.06
2023-01-29T21:30:50.318Z,101289.91
2023-01-29T21:33:17.490Z,101289.81
2023-01-29T21:35:44.203Z,101282.09
2023-01-29T21:38:10.734Z,101267.69
2023-01-29T21:40:37.676Z,101270.28
2023-01-29T21:43:13.226Z,101267.75
2023-01-29T21:45:40.931Z,101274.59
2023-01-29T21:48:09.385Z,101279.81
2023-01-29T21:50:36.941Z,101289.22
2023-01-29T21:53:06.758Z,101275.63
2023-01-29T21:55:33.441Z,101268.66
2023-01-29T21:58:00.714Z,101252.41
2023-01-29T22:00:28.307Z,101257.47
2023-01-29T22:02:58.574Z,101242.09
2023-01-29T22:05:26.471Z,101243.94
2023-01-29T22:07:53.225Z,101247.25
2023-01-29T22:10:20.696Z,101247.41
2023-01-29T22:12:48.616Z,101232.91
2023-01-29T22:15:15.974Z,101234.56
2023-01-29T22:17:42.523Z,101240.47
2023-01-29T22:20:13.689Z,101239.69
2023-01-29T22:22:40.335Z,101231.13
2023-01-29T22:25:07.664Z,101237.19
2023-01-29T22:27:34.627Z,101222.59
2023-01-29T22:30:01.326Z,101219.25
2023-01-29T22:32:28.191Z,101213.28
2023-01-29T22:34:54.805Z,101202.22
2023-01-29T22:37:21.971Z,101208.31
2023-01-29T22:39:48.702Z,101194.69
2023-01-29T22:42:15.728Z,101193.00
2023-01-29T22:44:42.900Z,101193.84
2023-01-29T22:47:09.462Z,101183.56
2023-01-29T22:49:36.307Z,101186.25
2023-01-29T22:52:11.922Z,101172.56
2023-01-29T22:54:40.652Z,101177.69
2023-01-29T22:57:10.336Z,101169.19
2023-01-29T22:59:37.186Z,101166.69
2023-01-29T23:02:04.220Z,101162.44
2023-01-29T23:04:30.855Z,101159.06
2023-01-29T23:06:57.347Z,101149.59
2023-01-29T23:09:24.265Z,101148.78
2023-01-29T23:11:50.984Z,101142.84
2023-01-29T23:14:17.682Z,101147.94
2023-01-29T23:16:44.396Z,101134.25
2023-01-29T23:19:11.945Z,101130.91
2023-01-29T23:21:39.816Z,101136.94
2023-01-29T23:24:08.016Z,101142.00
2023-01-29T23:26:53.459Z,101144.50
2023-01-29T23:29:20.467Z,101142.84
2023-01-29T23:31:47.020Z,101145.34
2023-01-29T23:34:14.354Z,101134.25
2023-01-29T23:36:41.691Z,101123.94
2023-01-29T23:39:08.413Z,101120.50
2023-01-29T23:41:35.272Z,101113.69
2023-01-29T23:44:02.365Z,101111.97
2023-01-29T23:46:29.211Z,101107.66
2023-01-29T23:48:55.873Z,101109.41
2023-01-29T23:51:22.618Z,101115.44
2023-01-29T23:53:51.751Z,101116.34
2023-01-29T23:56:18.225Z,101112.03
2023-01-29T23:58:44.975Z,101117.19
